Time;durP1;ratioP1;P1;durP2;ratioP2;P2;SDS_P1;SDS_P2;PMS_P1;PMS_P2;Temp;Humidity;BMP_temperature;BMP_pressure;BME280_temperature;BME280_humidity;BME280_pressure;Samples;Min_cycle;Max_cycle;Signal;HPM_P1;HPM_P2
2024/01/27 00:00:54;;;;;;;22.60;14.10;;;;;;;3.08;100.00;99990.78;109393;1252;60922;-63
2024/01/27 00:03:21;;;;;;;24.90;14.80;;;;;;;3.06;100.00;99992.35;109194;1253;60247;-63
2024/01/27 00:05:49;;;;;;;31.50;17.00;;;;;;;3.06;100.00;99994.83;109120;1251;72818;-62
2024/01/27 00:08:17;;;;;;;36.10;18.50;;;;;;;3.03;100.00;99990.96;109225;1253;67404;-63
2024/01/27 00:10:45;;;;;;;32.10;16.70;;;;;;;2.99;100.00;99992.48;109152;1258;72773;-65
2024/01/27 00:13:13;;;;;;;36.10;18.90;;;;;;;2.95;100.00;99992.15;109196;1254;58971;-62
2024/01/27 00:15:41;;;;;;;31.00;16.30;;;;;;;2.90;100.00;99993.71;109174;1253;60102;-62
2024/01/27 00:18:08;;;;;;;31.40;16.90;;;;;;;2.85;100.00;99989.18;109171;1253;74636;-63
2024/01/27 00:20:37;;;;;;;31.60;18.50;;;;;;;2.83;100.00;99986.73;109202;1252;65888;-63
2024/01/27 00:23:05;;;;;;;35.50;19.20;;;;;;;2.83;100.00;99985.40;109288;1254;72727;-63
2024/01/27 00:25:32;;;;;;;39.70;21.10;;;;;;;2.84;100.00;99982.19;109188;1258;59402;-63
2024/01/27 00:28:00;;;;;;;41.10;21.50;;;;;;;2.84;100.00;99981.86;109200;1253;58977;-62
2024/01/27 00:30:28;;;;;;;47.30;23.20;;;;;;;2.83;100.00;99981.96;109198;1257;74698;-63
2024/01/27 00:32:55;;;;;;;38.10;20.40;;;;;;;2.83;100.00;99981.83;109159;1253;65951;-64
2024/01/27 00:35:23;;;;;;;36.10;20.40;;;;;;;2.86;100.00;99984.10;109202;1254;72696;-63
2024/01/27 00:37:51;;;;;;;44.40;22.00;;;;;;;2.89;100.00;99983.50;109229;1256;59254;-63
2024/01/27 00:40:18;;;;;;;40.10;21.30;;;;;;;2.92;100.00;99985.98;109208;1253;59256;-62
2024/01/27 00:42:46;;;;;;;43.70;20.70;;;;;;;2.96;100.00;99989.73;109157;1253;72749;-68
2024/01/27 00:45:14;;;;;;;37.00;19.50;;;;;;;3.01;100.00;99995.60;109144;1253;66438;-62
2024/01/27 00:47:41;;;;;;;41.60;20.70;;;;;;;3.04;100.00;99993.95;109178;1253;72657;-63
2024/01/27 00:50:09;;;;;;;42.30;21.20;;;;;;;3.05;100.00;99997.75;109207;1254;59585;-63
2024/01/27 00:52:37;;;;;;;44.60;22.60;;;;;;;3.06;100.00;99998.53;109163;1253;60155;-64
2024/01/27 00:55:05;;;;;;;46.10;22.00;;;;;;;3.06;100.00;100000.46;109327;1254;73410;-64
2024/01/27 00:57:33;;;;;;;36.60;21.30;;;;;;;3.08;100.00;99998.70;109366;1254;67808;-62
2024/01/27 01:00:00;;;;;;;34.80;18.50;;;;;;;3.10;100.00;99998.23;109193;1252;72777;-63
2024/01/27 01:02:29;;;;;;;35.00;19.00;;;;;;;3.11;100.00;99997.26;109168;1253;60932;-63
2024/01/27 01:04:56;;;;;;;42.50;20.90;;;;;;;3.10;100.00;99997.83;109397;1253;60087;-63
2024/01/27 01:07:24;;;;;;;42.50;20.90;;;;;;;3.11;100.00;100001.34;109105;1259;74724;-67
2024/01/27 01:09:51;;;;;;;43.60;20.50;;;;;;;3.12;100.00;99998.88;109169;1254;66885;-63
2024/01/27 01:12:19;;;;;;;38.00;19.30;;;;;;;3.12;100.00;100001.58;109198;1253;72858;-63
2024/01/27 01:14:47;;;;;;;36.80;19.90;;;;;;;3.11;100.00;99999.77;109181;1254;59660;-62
2024/01/27 01:17:14;;;;;;;36.10;18.30;;;;;;;3.11;100.00;100001.70;109210;1252;59065;-64
2024/01/27 01:19:42;;;;;;;35.30;18.60;;;;;;;3.10;100.00;100001.08;109128;1254;74780;-63
2024/01/27 01:22:10;;;;;;;35.10;16.70;;;;;;;3.11;100.00;99998.45;109358;1253;66520;-63
2024/01/27 01:24:39;;;;;;;31.40;16.10;;;;;;;3.10;100.00;99999.33;109375;1254;71565;-62
2024/01/27 01:27:08;;;;;;;31.00;17.20;;;;;;;3.10;100.00;100000.61;109190;1254;59874;-62
2024/01/27 01:29:35;;;;;;;30.30;16.20;;;;;;;3.08;100.00;99997.83;109230;1253;59534;-63
2024/01/27 01:32:03;;;;;;;26.20;14.50;;;;;;;3.08;100.00;100000.27;109247;1253;74722;-63
2024/01/27 01:34:31;;;;;;;26.20;14.20;;;;;;;3.07;100.00;99997.08;109346;1253;66248;-63
2024/01/27 01:37:01;;;;;;;23.60;12.60;;;;;;;3.05;100.00;99999.39;109225;1254;71006;-63
2024/01/27 01:39:29;;;;;;;30.40;15.40;;;;;;;3.01;100.00;100001.56;109161;1253;59424;-66
2024/01/27 01:41:56;;;;;;;27.50;14.80;;;;;;;2.99;100.00;99998.48;109196;1254;60009;-63
2024/01/27 01:44:28;;;;;;;28.20;15.40;;;;;;;3.00;100.00;99998.11;109202;1253;73554;-63
2024/01/27 01:46:56;;;;;;;26.90;15.40;;;;;;;3.01;100.00;100000.02;109138;1254;67021;-63
2024/01/27 01:49:24;;;;;;;26.40;14.10;;;;;;;3.04;100.00;100001.70;109172;1255;72794;-67
2024/01/27 01:51:51;;;;;;;28.20;14.30;;;;;;;3.03;100.00;99999.70;109223;1254;58975;-63
2024/01/27 01:54:19;;;;;;;31.50;15.50;;;;;;;3.02;100.00;100004.46;109245;1253;59044;-63
2024/01/27 01:56:47;;;;;;;31.70;15.00;;;;;;;3.00;100.00;100006.16;109364;1253;74637;-63
2024/01/27 01:59:14;;;;;;;29.40;13.50;;;;;;;2.98;100.00;100005.85;109222;1253;66991;-63
2024/01/27 02:01:42;;;;;;;26.60;13.30;;;;;;;2.93;100.00;100008.27;109166;1254;72775;-67
2024/01/27 02:04:12;;;;;;;24.90;13.40;;;;;;;2.89;100.00;100010.05;109221;1254;59308;-63
2024/01/27 02:06:40;;;;;;;23.00;12.90;;;;;;;2.83;100.00;100007.91;109188;1252;58953;-63
2024/01/27 02:09:09;;;;;;;20.60;11.20;;;;;;;2.78;100.00;100008.15;109186;1255;73481;-63
2024/01/27 02:11:37;;;;;;;20.00;11.20;;;;;;;2.75;100.00;100009.46;109210;1252;66184;-65
2024/01/27 02:14:05;;;;;;;21.90;11.80;;;;;;;2.71;100.00;100011.34;109194;1254;72922;-62
2024/01/27 02:16:32;;;;;;;21.50;11.80;;;;;;;2.68;100.00;100010.21;109184;1252;59714;-63
2024/01/27 02:19:00;;;;;;;17.10;9.20;;;;;;;2.67;100.00;100007.77;109282;1253;60084;-63
2024/01/27 02:21:27;;;;;;;15.10;8.90;;;;;;;2.64;100.00;100003.36;109240;1252;73440;-63
2024/01/27 02:23:55;;;;;;;17.40;9.40;;;;;;;2.61;100.00;100008.13;109192;1254;67133;-63
2024/01/27 02:26:23;;;;;;;17.70;8.80;;;;;;;2.58;100.00;100004.95;109235;1254;71421;-64
2024/01/27 02:28:50;;;;;;;15.30;8.80;;;;;;;2.56;100.00;100004.77;109217;1254;59964;-63
2024/01/27 02:31:18;;;;;;;16.00;8.30;;;;;;;2.56;100.00;100006.38;109359;1253;60184;-62
2024/01/27 02:33:46;;;;;;;15.60;9.30;;;;;;;2.56;100.00;100005.84;109212;1253;74728;-64
2024/01/27 02:36:13;;;;;;;17.10;9.30;;;;;;;2.59;100.00;100009.84;109257;1253;66220;-63
2024/01/27 02:38:41;;;;;;;17.30;9.10;;;;;;;2.63;100.00;100011.87;109352;1253;72724;-63
2024/01/27 02:41:12;;;;;;;15.10;8.00;;;;;;;2.60;100.00;100012.71;109309;1253;60982;-63
2024/01/27 02:43:39;;;;;;;19.50;8.60;;;;;;;2.59;100.00;100011.04;109247;1253;59291;-64
2024/01/27 02:46:12;;;;;;;17.20;8.70;;;;;;;2.61;100.00;100010.36;109179;1252;74941;-65
2024/01/27 02:48:41;;;;;;;16.40;8.80;;;;;;;2.63;100.00;100012.90;109216;1254;67047;-63
2024/01/27 02:51:09;;;;;;;14.70;8.10;;;;;;;2.63;100.00;100012.21;109318;1253;72727;-64
2024/01/27 02:53:36;;;;;;;15.20;8.30;;;;;;;2.62;100.00;100012.98;109322;1253;59334;-63
2024/01/27 02:56:07;;;;;;;12.90;7.30;;;;;;;2.62;100.00;100014.75;109235;1253;58897;-67
2024/01/27 02:58:34;;;;;;;13.00;7.60;;;;;;;2.62;100.00;100016.77;109279;1254;74870;-63
2024/01/27 03:01:02;;;;;;;12.60;7.50;;;;;;;2.62;100.00;100019.16;109253;1254;67000;-62
2024/01/27 03:03:30;;;;;;;14.20;7.30;;;;;;;2.63;100.00;100018.08;109205;1254;71428;-64
2024/01/27 03:05:57;;;;;;;13.50;6.70;;;;;;;2.64;100.00;100020.91;109176;1254;59339;-62
2024/01/27 03:08:26;;;;;;;11.20;6.30;;;;;;;2.64;100.00;100018.63;109218;1252;59048;-66
2024/01/27 03:10:53;;;;;;;11.60;7.10;;;;;;;2.65;100.00;100022.86;109282;1253;74787;-62
2024/01/27 03:13:21;;;;;;;11.00;7.00;;;;;;;2.66;100.00;100025.33;109258;1253;66963;-63
2024/01/27 03:15:49;;;;;;;9.80;5.60;;;;;;;2.67;100.00;100026.48;109228;1254;71478;-62
2024/01/27 03:18:17;;;;;;;10.40;6.50;;;;;;;2.66;100.00;100025.52;109298;1254;59014;-64
2024/01/27 03:20:45;;;;;;;10.70;6.20;;;;;;;2.66;100.00;100028.31;109317;1253;60636;-63
2024/01/27 03:23:12;;;;;;;10.20;6.60;;;;;;;2.66;100.00;100030.83;109292;1253;73336;-63
2024/01/27 03:25:40;;;;;;;12.50;7.40;;;;;;;2.67;100.00;100032.41;109276;1253;66944;-62
2024/01/27 03:28:08;;;;;;;9.90;6.60;;;;;;;2.71;100.00;100034.20;109341;1254;71470;-63
2024/01/27 03:30:35;;;;;;;10.60;6.30;;;;;;;2.69;100.00;100037.44;109166;1252;61122;-63
2024/01/27 03:33:03;;;;;;;11.00;6.70;;;;;;;2.67;100.00;100034.66;109238;1254;60077;-62
2024/01/27 03:35:31;;;;;;;11.30;7.00;;;;;;;2.66;100.00;100038.22;109237;1254;74723;-63
2024/01/27 03:37:59;;;;;;;11.40;6.90;;;;;;;2.62;100.00;100037.17;109245;1254;65411;-62
2024/01/27 03:40:31;;;;;;;10.40;6.60;;;;;;;2.60;100.00;100033.62;109189;1254;72748;-66
2024/01/27 03:42:58;;;;;;;9.80;6.40;;;;;;;2.58;100.00;100030.16;109230;1254;59629;-62
2024/01/27 03:45:26;;;;;;;10.70;6.60;;;;;;;2.58;100.00;100026.59;109328;1253;59002;-62
2024/01/27 03:47:53;;;;;;;10.20;6.00;;;;;;;2.58;100.00;100027.83;109266;1253;74781;-63
2024/01/27 03:50:21;;;;;;;8.10;5.30;;;;;;;2.56;100.00;100032.38;109289;1254;65651;-63
2024/01/27 03:52:49;;;;;;;8.70;5.90;;;;;;;2.55;100.00;100034.27;109266;1253;71440;-62
2024/01/27 03:55:17;;;;;;;10.70;6.00;;;;;;;2.52;100.00;100041.18;109243;1254;58970;-63
2024/01/27 03:57:44;;;;;;;8.10;5.20;;;;;;;2.51;100.00;100040.41;109244;1253;58879;-63
2024/01/27 04:00:12;;;;;;;8.60;5.30;;;;;;;2.51;100.00;100046.63;109266;1253;74722;-63
2024/01/27 04:02:40;;;;;;;10.10;5.70;;;;;;;2.52;100.00;100046.71;109216;1254;66939;-64
2024/01/27 04:05:08;;;;;;;8.60;5.70;;;;;;;2.53;100.00;100050.70;109243;1254;71803;-63
2024/01/27 04:07:35;;;;;;;10.10;6.20;;;;;;;2.53;100.00;100051.71;109230;1254;58954;-65
2024/01/27 04:10:04;;;;;;;9.20;6.20;;;;;;;2.55;100.00;100054.48;109207;1254;60109;-63
2024/01/27 04:12:31;;;;;;;9.20;5.60;;;;;;;2.57;100.00;100056.54;109220;1253;73315;-64
2024/01/27 04:14:59;;;;;;;11.60;6.30;;;;;;;2.58;100.00;100059.00;109284;1253;67176;-64
2024/01/27 04:17:27;;;;;;;9.50;6.00;;;;;;;2.60;100.00;100060.02;109303;1252;72798;-64
2024/01/27 04:19:55;;;;;;;8.90;5.90;;;;;;;2.61;100.00;100061.83;109241;1252;58955;-63
2024/01/27 04:22:22;;;;;;;8.60;5.60;;;;;;;2.62;100.00;100063.45;109344;1253;59507;-62
2024/01/27 04:24:50;;;;;;;9.40;6.30;;;;;;;2.61;100.00;100063.20;109259;1254;74704;-62
2024/01/27 04:27:18;;;;;;;9.10;5.70;;;;;;;2.60;100.00;100064.16;109380;1253;65826;-62
2024/01/27 04:29:45;;;;;;;7.70;5.20;;;;;;;2.60;100.00;100064.12;109207;1253;72922;-62
2024/01/27 04:32:13;;;;;;;10.50;6.50;;;;;;;2.62;100.00;100068.92;109232;1254;59004;-62
2024/01/27 04:34:41;;;;;;;13.40;8.70;;;;;;;2.62;100.00;100075.30;109326;1253;58897;-63
2024/01/27 04:37:08;;;;;;;12.80;8.00;;;;;;;2.59;100.00;100078.29;109311;1253;75502;-62
2024/01/27 04:39:37;;;;;;;11.00;6.70;;;;;;;2.56;100.00;100078.36;109336;1254;65625;-62
2024/01/27 04:42:06;;;;;;;10.20;6.40;;;;;;;2.55;100.00;100079.18;109272;1253;72728;-61
2024/01/27 04:44:33;;;;;;;11.60;6.90;;;;;;;2.52;100.00;100080.09;109221;1254;61159;-62
2024/01/27 04:47:01;;;;;;;11.30;6.90;;;;;;;2.51;100.00;100082.33;109261;1254;58893;-65
2024/01/27 04:49:29;;;;;;;14.50;7.90;;;;;;;2.50;100.00;100083.42;109282;1253;73799;-61
2024/01/27 04:51:56;;;;;;;11.80;7.30;;;;;;;2.49;100.00;100083.67;109271;1253;65646;-62
2024/01/27 04:54:25;;;;;;;15.10;8.50;;;;;;;2.45;100.00;100087.92;109315;1253;72795;-62
2024/01/27 04:56:52;;;;;;;14.10;8.30;;;;;;;2.44;100.00;100091.29;109215;1254;60922;-62
2024/01/27 04:59:20;;;;;;;14.00;7.60;;;;;;;2.46;100.00;100092.87;109205;1252;60107;-63
2024/01/27 05:01:48;;;;;;;13.00;8.00;;;;;;;2.46;100.00;100094.52;109249;1252;74771;-65
2024/01/27 05:04:15;;;;;;;15.20;8.50;;;;;;;2.47;100.00;100098.25;109296;1253;65607;-63
2024/01/27 05:06:45;;;;;;;12.90;7.80;;;;;;;2.47;100.00;100098.97;109248;1253;72726;-62
2024/01/27 05:09:13;;;;;;;12.60;7.80;;;;;;;2.46;100.00;100102.11;109227;1252;60976;-61
2024/01/27 05:11:42;;;;;;;18.50;10.50;;;;;;;2.42;100.00;100106.35;109264;1254;58855;-62
2024/01/27 05:14:10;;;;;;;12.90;8.90;;;;;;;2.39;100.00;100110.64;109237;1253;73404;-62
2024/01/27 05:16:37;;;;;;;13.60;8.30;;;;;;;2.36;100.00;100112.37;109362;1253;66858;-62
2024/01/27 05:19:05;;;;;;;15.50;9.00;;;;;;;2.35;100.00;100113.02;109330;1253;71368;-62
2024/01/27 05:21:33;;;;;;;13.90;8.50;;;;;;;2.32;100.00;100120.63;109308;1253;59551;-62
2024/01/27 05:24:00;;;;;;;14.30;9.10;;;;;;;2.31;100.00;100125.17;109344;1253;60166;-62
2024/01/27 05:26:28;;;;;;;13.40;8.30;;;;;;;2.29;100.00;100128.25;109330;1253;73441;-62
2024/01/27 05:28:56;;;;;;;13.90;8.40;;;;;;;2.31;100.00;100134.30;109356;1253;66187;-62
2024/01/27 05:31:24;;;;;;;13.60;8.40;;;;;;;2.30;100.00;100133.98;109295;1253;72779;-66
2024/01/27 05:33:52;;;;;;;13.20;8.40;;;;;;;2.31;100.00;100137.37;109072;1252;59342;-62
2024/01/27 05:36:20;;;;;;;13.90;8.30;;;;;;;2.32;100.00;100135.79;109336;1253;60027;-62
2024/01/27 05:38:48;;;;;;;16.30;8.70;;;;;;;2.32;100.00;100136.30;109268;1253;74722;-63
2024/01/27 05:41:15;;;;;;;14.80;8.50;;;;;;;2.31;100.00;100140.63;109341;1253;65813;-62
2024/01/27 05:43:43;;;;;;;17.40;10.20;;;;;;;2.31;100.00;100141.64;109265;1253;72717;-63
2024/01/27 05:46:11;;;;;;;14.90;8.70;;;;;;;2.33;100.00;100139.47;109247;1253;61124;-64
2024/01/27 05:48:38;;;;;;;16.80;9.90;;;;;;;2.36;100.00;100139.98;109234;1253;60021;-63
2024/01/27 05:51:07;;;;;;;16.50;9.80;;;;;;;2.40;100.00;100145.14;109351;1253;74739;-63
2024/01/27 05:53:35;;;;;;;16.10;10.20;;;;;;;2.42;100.00;100146.19;109283;1253;65983;-67
2024/01/27 05:56:02;;;;;;;17.70;9.90;;;;;;;2.42;100.00;100143.23;109240;1253;71425;-64
2024/01/27 05:58:30;;;;;;;17.30;8.60;;;;;;;2.45;100.00;100149.17;109345;1253;59665;-64
2024/01/27 06:00:58;;;;;;;16.90;9.80;;;;;;;2.47;100.00;100149.18;109271;1253;59057;-64
2024/01/27 06:03:26;;;;;;;16.70;9.90;;;;;;;2.50;100.00;100151.30;109327;1253;73441;-64
2024/01/27 06:05:53;;;;;;;17.50;9.90;;;;;;;2.55;100.00;100149.20;109300;1253;67036;-65
2024/01/27 06:08:21;;;;;;;15.90;9.60;;;;;;;2.57;100.00;100150.73;109226;1253;72734;-64
2024/01/27 06:10:49;;;;;;;18.30;10.40;;;;;;;2.59;100.00;100147.98;109258;1253;60991;-64
2024/01/27 06:13:16;;;;;;;18.60;10.90;;;;;;;2.63;100.00;100150.05;109277;1253;59061;-64
2024/01/27 06:15:44;;;;;;;18.60;10.80;;;;;;;2.64;100.00;100145.05;109277;1253;73357;-67
2024/01/27 06:18:12;;;;;;;17.10;11.10;;;;;;;2.67;100.00;100147.92;109266;1252;67379;-62
2024/01/27 06:20:40;;;;;;;17.70;10.80;;;;;;;2.69;100.00;100144.16;109255;1253;72682;-64
2024/01/27 06:23:08;;;;;;;24.00;17.00;;;;;;;2.71;100.00;100147.48;109247;1253;59833;-65
2024/01/27 06:25:36;;;;;;;26.60;17.00;;;;;;;2.72;100.00;100146.67;109203;1253;58921;-67
2024/01/27 06:28:03;;;;;;;24.50;16.20;;;;;;;2.71;100.00;100150.05;109277;1252;73446;-63
2024/01/27 06:30:31;;;;;;;21.20;13.50;;;;;;;2.70;100.00;100153.39;109315;1253;66935;-64
2024/01/27 06:32:59;;;;;;;23.60;12.60;;;;;;;2.69;100.00;100155.48;109268;1253;71003;-64
2024/01/27 06:35:26;;;;;;;18.50;11.50;;;;;;;2.68;100.00;100153.80;109248;1255;58938;-64
2024/01/27 06:37:54;;;;;;;18.50;11.20;;;;;;;2.67;100.00;100155.65;109233;1253;59102;-64
2024/01/27 06:40:22;;;;;;;21.30;11.80;;;;;;;2.67;100.00;100155.30;109255;1253;74714;-64
2024/01/27 06:42:50;;;;;;;21.30;12.20;;;;;;;2.70;100.00;100157.14;109244;1253;66875;-64
2024/01/27 06:45:18;;;;;;;21.60;12.60;;;;;;;2.76;100.00;100159.05;109229;1253;72772;-64
2024/01/27 06:47:45;;;;;;;18.70;11.20;;;;;;;2.81;100.00;100163.16;109201;1254;60125;-65
2024/01/27 06:50:15;;;;;;;17.20;10.40;;;;;;;2.85;100.00;100163.52;109231;1253;59307;-64
2024/01/27 06:52:42;;;;;;;18.30;9.80;;;;;;;2.88;100.00;100167.08;109257;1254;74631;-64
2024/01/27 06:55:10;;;;;;;15.00;9.30;;;;;;;2.90;100.00;100169.98;109280;1253;66284;-64
2024/01/27 06:57:40;;;;;;;14.80;9.10;;;;;;;2.88;100.00;100169.65;109294;1253;72779;-63
2024/01/27 07:00:08;;;;;;;17.20;10.60;;;;;;;2.87;100.00;100170.15;109225;1253;59340;-67
2024/01/27 07:02:36;;;;;;;14.40;9.10;;;;;;;2.88;100.00;100170.83;109262;1253;59365;-64
2024/01/27 07:05:04;;;;;;;15.80;9.20;;;;;;;2.89;100.00;100170.77;109334;1253;74777;-64
2024/01/27 07:07:31;;;;;;;13.00;7.90;;;;;;;2.91;100.00;100174.68;109344;1253;65783;-65
2024/01/27 07:09:59;;;;;;;13.60;7.70;;;;;;;2.93;100.00;100172.06;109268;1253;71994;-64
2024/01/27 07:12:26;;;;;;;13.10;7.70;;;;;;;2.99;100.00;100167.98;109205;1253;60143;-64
2024/01/27 07:14:59;;;;;;;12.90;8.20;;;;;;;3.03;100.00;100170.48;109239;1253;60091;-63
2024/01/27 07:17:27;;;;;;;14.30;8.30;;;;;;;3.10;100.00;100172.45;109304;1253;74786;-64
2024/01/27 07:19:55;;;;;;;13.70;8.60;;;;;;;3.15;100.00;100180.23;109264;1253;66493;-64
2024/01/27 07:22:23;;;;;;;15.20;9.50;;;;;;;3.21;100.00;100183.56;109292;1254;73112;-64
2024/01/27 07:24:51;;;;;;;15.70;9.30;;;;;;;3.26;100.00;100187.86;109241;1253;60037;-63
2024/01/27 07:27:19;;;;;;;13.80;8.30;;;;;;;3.31;100.00;100187.41;109318;1253;58832;-62
2024/01/27 07:29:47;;;;;;;17.90;11.60;;;;;;;3.37;100.00;100192.73;109259;1253;74713;-63
2024/01/27 07:32:14;;;;;;;14.10;9.40;;;;;;;3.41;100.00;100194.38;109228;1253;65508;-64
2024/01/27 07:34:43;;;;;;;11.90;8.20;;;;;;;3.44;100.00;100196.77;109357;1253;72615;-62
2024/01/27 07:37:10;;;;;;;14.10;9.10;;;;;;;3.45;100.00;100198.70;109222;1253;59685;-61
2024/01/27 07:39:38;;;;;;;12.40;7.80;;;;;;;3.47;100.00;100199.17;109263;1253;59257;-61
2024/01/27 07:42:06;;;;;;;12.70;7.90;;;;;;;3.47;100.00;100201.62;109317;1253;73833;-61
2024/01/27 07:44:34;;;;;;;10.90;6.90;;;;;;;3.45;100.00;100203.46;109089;1257;64970;-61
2024/01/27 07:47:01;;;;;;;10.80;6.70;;;;;;;3.48;100.00;100203.90;109275;1253;71436;-60
2024/01/27 07:49:29;;;;;;;11.20;7.20;;;;;;;3.54;100.00;100206.33;109363;1253;59414;-62
2024/01/27 07:51:57;;;;;;;13.60;8.60;;;;;;;3.60;100.00;100206.26;109253;1253;60347;-61
2024/01/27 07:54:24;;;;;;;11.60;8.20;;;;;;;3.69;100.00;100210.61;109310;1253;74773;-64
2024/01/27 07:56:52;;;;;;;11.90;7.10;;;;;;;3.72;100.00;100212.10;109295;1253;65630;-61
2024/01/27 07:59:20;;;;;;;11.10;7.70;;;;;;;3.71;100.00;100215.23;109333;1253;72706;-61
2024/01/27 08:01:47;;;;;;;9.90;6.90;;;;;;;3.71;100.00;100217.63;109255;1253;59305;-61
2024/01/27 08:04:16;;;;;;;9.60;6.10;;;;;;;3.72;100.00;100218.38;109307;1253;60243;-62
2024/01/27 08:06:48;;;;;;;10.90;6.30;;;;;;;3.77;100.00;100220.00;109272;1253;73406;-63
2024/01/27 08:09:16;;;;;;;10.10;6.70;;;;;;;3.82;100.00;100225.36;109259;1253;67112;-62
2024/01/27 08:11:44;;;;;;;9.10;5.90;;;;;;;3.88;100.00;100230.84;109302;1253;72701;-62
2024/01/27 08:14:12;;;;;;;9.40;6.20;;;;;;;3.92;100.00;100231.50;109244;1253;60295;-62
2024/01/27 08:16:39;;;;;;;9.80;6.60;;;;;;;3.99;100.00;100234.19;109205;1253;58940;-62
2024/01/27 08:19:07;;;;;;;11.10;6.50;;;;;;;4.07;100.00;100233.29;109334;1253;75182;-61
2024/01/27 08:21:35;;;;;;;10.60;6.50;;;;;;;4.12;100.00;100234.16;109251;1253;65625;-62
2024/01/27 08:24:03;;;;;;;9.70;6.60;;;;;;;4.12;100.00;100231.39;109267;1253;72710;-61
2024/01/27 08:26:30;;;;;;;11.00;6.00;;;;;;;4.11;100.00;100231.16;109224;1254;59004;-61
2024/01/27 08:28:58;;;;;;;9.80;6.60;;;;;;;4.09;100.00;100228.58;109250;1252;60523;-62
2024/01/27 08:31:26;;;;;;;9.00;6.10;;;;;;;4.09;100.00;100228.38;109322;1253;74704;-62
2024/01/27 08:33:54;;;;;;;10.90;7.00;;;;;;;4.10;100.00;100229.52;109360;1252;66788;-61
2024/01/27 08:36:22;;;;;;;9.40;6.60;;;;;;;4.13;100.00;100228.57;109321;1253;72686;-61
2024/01/27 08:38:49;;;;;;;8.80;6.10;;;;;;;4.17;100.00;100224.20;109336;1253;59223;-61
2024/01/27 08:41:17;;;;;;;10.10;6.20;;;;;;;4.23;100.00;100223.39;109276;1253;60155;-62
2024/01/27 08:43:45;;;;;;;11.60;7.40;;;;;;;4.24;100.00;100223.10;109285;1253;73904;-61
2024/01/27 08:46:15;;;;;;;9.30;6.10;;;;;;;4.24;100.00;100223.07;109264;1253;67488;-61
2024/01/27 08:48:42;;;;;;;10.50;6.10;;;;;;;4.23;100.00;100221.24;109254;1253;71452;-61
2024/01/27 08:51:12;;;;;;;9.40;6.30;;;;;;;4.21;100.00;100218.20;109289;1253;59753;-64
2024/01/27 08:53:40;;;;;;;9.00;6.30;;;;;;;4.17;100.00;100216.90;109327;1253;59334;-61
2024/01/27 08:56:07;;;;;;;9.00;6.00;;;;;;;4.13;100.00;100214.07;109328;1252;73360;-60
2024/01/27 08:58:35;;;;;;;9.10;5.90;;;;;;;4.11;100.00;100215.67;109293;1253;67032;-62
2024/01/27 09:01:05;;;;;;;8.30;5.80;;;;;;;4.08;100.00;100209.93;109236;1253;72789;-59
2024/01/27 09:03:33;;;;;;;9.60;6.10;;;;;;;4.07;100.00;100211.44;109315;1252;60712;-59
2024/01/27 09:06:00;;;;;;;8.70;6.10;;;;;;;4.05;100.00;100210.55;109242;1253;58855;-60
2024/01/27 09:08:28;;;;;;;9.40;6.60;;;;;;;4.05;100.00;100209.54;109336;1253;74768;-59
2024/01/27 09:10:56;;;;;;;12.40;7.80;;;;;;;4.06;100.00;100211.63;109336;1253;67053;-60
2024/01/27 09:13:23;;;;;;;11.00;6.80;;;;;;;4.05;100.00;100210.17;109266;1254;72717;-61
2024/01/27 09:15:51;;;;;;;15.40;9.90;;;;;;;4.05;100.00;100214.46;109273;1253;61491;-62
2024/01/27 09:18:19;;;;;;;44.60;27.40;;;;;;;4.05;100.00;100215.01;109353;1253;60092;-62
2024/01/27 09:20:50;;;;;;;35.70;22.10;;;;;;;4.03;100.00;100216.06;109262;1253;73610;-61
2024/01/27 09:23:17;;;;;;;26.30;15.70;;;;;;;3.99;100.00;100211.48;109216;1253;69919;-61
2024/01/27 09:25:45;;;;;;;23.70;14.10;;;;;;;3.95;100.00;100209.58;109203;1254;73184;-61
2024/01/27 09:28:14;;;;;;;12.60;7.60;;;;;;;3.97;100.00;100208.57;109251;1252;59666;-61
2024/01/27 09:30:42;;;;;;;10.80;7.40;;;;;;;4.02;100.00;100209.11;109242;1253;59034;-61
2024/01/27 09:33:10;;;;;;;10.90;7.00;;;;;;;4.07;100.00;100208.98;109326;1257;74712;-61
2024/01/27 09:35:38;;;;;;;11.40;7.40;;;;;;;4.13;100.00;100210.16;109331;1253;65619;-60
2024/01/27 09:38:12;;;;;;;16.00;10.20;;;;;;;4.17;100.00;100214.30;109216;1253;71410;-60
2024/01/27 09:40:40;;;;;;;14.00;7.80;;;;;;;4.23;100.00;100211.65;109236;1253;61092;-61
2024/01/27 09:43:09;;;;;;;11.30;7.70;;;;;;;4.28;100.00;100212.86;109256;1252;60109;-60
2024/01/27 09:45:37;;;;;;;9.80;7.00;;;;;;;4.33;100.00;100212.77;109082;1253;74810;-60
2024/01/27 09:48:05;;;;;;;10.30;6.90;;;;;;;4.38;100.00;100212.81;109275;1253;65946;-60
2024/01/27 09:50:34;;;;;;;10.70;7.20;;;;;;;4.42;100.00;100213.17;109137;1253;72789;-60
2024/01/27 09:53:01;;;;;;;10.60;6.00;;;;;;;4.47;100.00;100210.62;109220;1253;60897;-60
2024/01/27 09:55:29;;;;;;;9.10;5.90;;;;;;;4.54;100.00;100211.41;109304;1253;59422;-62
2024/01/27 09:57:56;;;;;;;9.60;5.90;;;;;;;4.62;100.00;100210.01;109337;1253;74690;-60
2024/01/27 10:00:24;;;;;;;9.00;5.50;;;;;;;4.66;100.00;100212.95;109347;1253;65791;-60
2024/01/27 10:02:52;;;;;;;9.20;6.10;;;;;;;4.69;100.00;100209.88;109023;1253;72712;-60
2024/01/27 10:05:20;;;;;;;8.50;6.00;;;;;;;4.71;100.00;100213.55;109110;1253;61918;-60
2024/01/27 10:07:48;;;;;;;8.10;5.10;;;;;;;4.74;100.00;100213.70;109046;1252;61229;-60
2024/01/27 10:10:16;;;;;;;10.40;6.30;;;;;;;4.79;100.00;100215.27;109362;1253;74753;-60
2024/01/27 10:12:44;;;;;;;10.10;6.70;;;;;;;4.85;100.00;100217.17;109327;1253;67922;-60
2024/01/27 10:15:22;;;;;;;10.10;7.00;;;;;;;4.91;100.00;100215.75;109225;1254;73637;-60
2024/01/27 10:17:50;;;;;;;9.50;6.40;;;;;;;4.98;100.00;100215.27;109091;1253;62066;-59
2024/01/27 10:20:18;;;;;;;10.40;6.40;;;;;;;5.02;100.00;100210.00;109291;1255;60099;-59
2024/01/27 10:22:47;;;;;;;8.30;4.90;;;;;;;5.05;100.00;100214.69;109247;1253;77745;-60
2024/01/27 10:25:16;;;;;;;7.80;5.70;;;;;;;5.04;100.00;100215.52;109259;1253;67046;-60
2024/01/27 10:27:45;;;;;;;9.20;5.90;;;;;;;5.04;100.00;100218.77;109207;1253;74820;-58
2024/01/27 10:30:17;;;;;;;10.60;7.30;;;;;;;5.06;100.00;100219.38;109267;1253;59353;-59
2024/01/27 10:32:56;;;;;;;9.60;6.60;;;;;;;5.10;100.00;100218.85;109124;1253;59250;-58
2024/01/27 10:35:25;;;;;;;8.40;6.10;;;;;;;5.12;100.00;100222.60;109217;1253;76174;-62
2024/01/27 10:37:54;;;;;;;9.20;6.20;;;;;;;5.10;100.00;100223.45;109241;1253;67090;-59
2024/01/27 10:40:29;;;;;;;9.10;6.30;;;;;;;5.06;100.00;100229.22;109214;1252;72686;-61
2024/01/27 10:43:05;;;;;;;9.70;6.10;;;;;;;5.02;100.00;100228.29;109247;1253;60133;-61
2024/01/27 10:45:37;;;;;;;9.30;6.30;;;;;;;4.99;100.00;100228.58;109201;1253;62182;-58
2024/01/27 10:48:06;;;;;;;8.60;5.80;;;;;;;4.92;100.00;100233.73;109062;1253;76811;-59
2024/01/27 10:50:35;;;;;;;23.10;13.40;;;;;;;4.82;100.00;100231.02;109272;1253;65756;-58
2024/01/27 10:53:09;;;;;;;10.70;6.90;;;;;;;4.78;100.00;100228.17;109073;1253;72367;-61
2024/01/27 10:55:37;;;;;;;11.30;7.60;;;;;;;4.74;100.00;100231.46;109105;1257;59852;-59
2024/01/27 10:58:05;;;;;;;9.30;6.30;;;;;;;4.71;100.00;100235.36;109279;1253;61049;-60
2024/01/27 11:00:32;;;;;;;9.40;5.70;;;;;;;4.65;100.00;100235.89;109086;1253;74779;-60
2024/01/27 11:03:02;;;;;;;9.00;6.20;;;;;;;4.62;100.00;100232.41;109297;1252;70042;-60
2024/01/27 11:05:30;;;;;;;9.20;6.40;;;;;;;4.59;100.00;100232.96;109223;1253;71787;-60
2024/01/27 11:07:58;;;;;;;10.50;7.20;;;;;;;4.58;100.00;100231.77;109231;1253;59662;-60
2024/01/27 11:10:26;;;;;;;9.00;6.20;;;;;;;4.58;100.00;100230.86;109327;1253;62096;-59
2024/01/27 11:12:57;;;;;;;9.60;7.00;;;;;;;4.62;100.00;100230.66;109050;1253;76935;-59